createdAt,value
2018-05-11T00:00:10.619Z,3.23
2018-05-11T00:02:13.790Z,2.10
2018-05-11T00:04:16.966Z,1.60
2018-05-11T00:06:20.146Z,2.03
2018-05-11T00:08:23.279Z,2.03
2018-05-11T00:10:28.316Z,2.43
2018-05-11T00:12:32.253Z,1.97
2018-05-11T00:14:36.162Z,2.33
2018-05-11T00:16:39.343Z,3.70
2018-05-11T00:18:42.496Z,2.50
2018-05-11T00:20:46.407Z,1.67
2018-05-11T00:22:49.583Z,3.83
2018-05-11T00:24:52.838Z,4.05
2018-05-11T00:26:56.783Z,3.33
2018-05-11T00:28:59.931Z,3.15
2018-05-11T00:31:03.087Z,2.12
2018-05-11T00:33:08.208Z,2.57
2018-05-11T00:35:11.294Z,2.47
2018-05-11T00:37:14.466Z,1.90
2018-05-11T00:39:17.609Z,3.77
2018-05-11T00:41:20.751Z,2.67
2018-05-11T00:43:23.942Z,3.83
2018-05-11T00:45:27.959Z,2.23
2018-05-11T00:47:31.130Z,1.37
2018-05-11T00:49:34.300Z,3.37
2018-05-11T00:51:37.468Z,2.17
2018-05-11T00:53:40.627Z,2.17
2018-05-11T00:55:51.311Z,2.10
2018-05-11T00:57:55.262Z,3.60
2018-05-11T00:59:58.404Z,2.60
2018-05-11T01:02:01.927Z,2.53
2018-05-11T01:04:05.445Z,2.03
2018-05-11T01:06:08.940Z,1.23
2018-05-11T01:08:12.475Z,1.77
2018-05-11T01:10:15.969Z,1.60
2018-05-11T01:12:19.448Z,3.17
2018-05-11T01:14:23.013Z,1.70
2018-05-11T01:16:26.518Z,1.85
2018-05-11T01:18:30.059Z,2.00
2018-05-11T01:20:33.653Z,2.78
2018-05-11T01:22:37.136Z,2.08
2018-05-11T01:24:40.674Z,1.27
2018-05-11T01:26:44.190Z,2.22
2018-05-11T01:28:48.767Z,2.00
2018-05-11T01:30:53.079Z,2.30
2018-05-11T01:32:57.526Z,1.33
2018-05-11T01:35:01.029Z,4.33
2018-05-11T01:37:04.564Z,1.48
2018-05-11T01:39:09.721Z,1.62
2018-05-11T01:41:13.215Z,2.78
2018-05-11T01:43:16.754Z,1.83
2018-05-11T01:45:20.373Z,1.87
2018-05-11T01:47:23.858Z,1.58
2018-05-11T01:49:27.603Z,1.27
2018-05-11T01:51:31.087Z,1.60
2018-05-11T01:53:34.634Z,4.07
2018-05-11T01:55:38.126Z,1.98
2018-05-11T01:57:41.675Z,4.73
2018-05-11T01:59:45.151Z,1.75
2018-05-11T02:01:48.947Z,2.28
2018-05-11T02:03:52.883Z,2.00
2018-05-11T02:05:56.035Z,3.85
2018-05-11T02:07:59.194Z,3.10
2018-05-11T02:10:02.335Z,8.23
2018-05-11T02:12:05.484Z,10.95
2018-05-11T02:14:09.748Z,14.07
2018-05-11T02:16:13.609Z,12.02
2018-05-11T02:18:16.882Z,6.90
2018-05-11T02:20:21.357Z,5.90
2018-05-11T02:22:25.463Z,5.37
2018-05-11T02:24:29.092Z,3.40
2018-05-11T02:26:32.234Z,2.20
2018-05-11T02:28:35.398Z,2.97
2018-05-11T02:30:38.531Z,2.80
2018-05-11T02:32:41.678Z,2.97
2018-05-11T02:34:45.615Z,2.30
2018-05-11T02:36:49.125Z,2.50
2018-05-11T02:38:53.081Z,3.67
2018-05-11T02:40:56.224Z,5.90
2018-05-11T02:42:59.367Z,7.60
2018-05-11T02:45:02.543Z,2.43
2018-05-11T02:47:05.685Z,2.70
2018-05-11T02:49:09.334Z,3.12
2018-05-11T02:51:12.493Z,2.07
2018-05-11T02:53:16.427Z,3.57
2018-05-11T02:55:20.334Z,4.22
2018-05-11T02:57:23.479Z,4.03
2018-05-11T02:59:26.650Z,2.20
2018-05-11T03:01:29.808Z,3.93
2018-05-11T03:03:32.969Z,3.67
2018-05-11T03:05:36.874Z,3.17
2018-05-11T03:07:40.011Z,1.93
2018-05-11T03:09:43.951Z,2.15
2018-05-11T03:11:47.116Z,2.53
2018-05-11T03:13:50.283Z,2.90
2018-05-11T03:15:53.423Z,2.43
2018-05-11T03:17:56.591Z,1.90
2018-05-11T03:19:59.751Z,4.03
2018-05-11T03:22:03.658Z,4.27
2018-05-11T03:24:06.821Z,2.47
2018-05-11T03:26:09.967Z,2.90
2018-05-11T03:28:13.132Z,4.67
2018-05-11T03:30:17.077Z,5.03
2018-05-11T03:32:20.215Z,3.20
2018-05-11T03:34:23.392Z,4.25
2018-05-11T03:36:26.535Z,2.80
2018-05-11T03:38:29.791Z,3.62
2018-05-11T03:40:33.722Z,4.37
2018-05-11T03:42:36.886Z,4.10
2018-05-11T03:44:40.047Z,3.75
2018-05-11T03:46:43.186Z,3.30
2018-05-11T03:48:46.329Z,3.07
2018-05-11T03:50:49.882Z,2.53
2018-05-11T03:52:53.058Z,2.80
2018-05-11T03:54:58.514Z,2.60
2018-05-11T03:57:03.827Z,3.10
2018-05-11T03:59:08.397Z,3.30
2018-05-11T04:01:29.958Z,3.47
2018-05-11T04:03:52.245Z,3.07
2018-05-11T04:06:04.790Z,2.93
2018-05-11T04:08:26.077Z,2.67
2018-05-11T04:10:31.579Z,3.00
2018-05-11T04:12:36.356Z,2.90
2018-05-11T04:14:42.280Z,3.60
2018-05-11T04:16:46.722Z,2.83
2018-05-11T04:18:51.710Z,4.15
2018-05-11T04:20:56.962Z,4.97
2018-05-11T04:23:01.684Z,4.40
2018-05-11T04:25:06.653Z,6.33
2018-05-11T04:27:11.315Z,2.70
2018-05-11T04:29:14.993Z,5.40
2018-05-11T04:31:19.731Z,4.30
2018-05-11T04:33:24.439Z,3.40
2018-05-11T04:35:29.427Z,3.15
2018-05-11T04:37:33.338Z,4.17
2018-05-11T04:39:36.483Z,5.67
2018-05-11T04:41:40.426Z,3.78
2018-05-11T04:43:43.617Z,3.77
2018-05-11T04:45:47.547Z,4.67
2018-05-11T04:47:50.703Z,3.90
2018-05-11T04:49:53.863Z,3.53
2018-05-11T04:51:57.009Z,4.97
2018-05-11T04:54:00.157Z,4.20
2018-05-11T04:56:04.090Z,4.37
2018-05-11T04:58:08.002Z,4.00
2018-05-11T05:00:11.174Z,4.37
2018-05-11T05:02:14.319Z,4.47
2018-05-11T05:04:17.480Z,3.87
2018-05-11T05:06:20.654Z,5.03
2018-05-11T05:08:24.558Z,4.35
2018-05-11T05:10:28.507Z,8.83
2018-05-11T05:12:32.423Z,4.07
2018-05-11T05:14:36.328Z,5.40
2018-05-11T05:16:39.506Z,3.60
2018-05-11T05:18:42.650Z,4.12
2018-05-11T05:20:45.823Z,5.03
2018-05-11T05:22:48.979Z,4.10
2018-05-11T05:24:52.890Z,4.50
2018-05-11T05:26:56.061Z,4.32
2018-05-11T05:28:59.205Z,5.53
2018-05-11T05:31:02.419Z,4.50
2018-05-11T05:33:06.396Z,4.70
2018-05-11T05:35:11.378Z,5.47
2018-05-11T05:37:14.542Z,6.87
2018-05-11T05:39:17.736Z,4.27
2018-05-11T05:41:22.706Z,4.13
2018-05-11T05:43:26.102Z,6.62
2018-05-11T05:45:29.264Z,5.90
2018-05-11T05:47:32.407Z,4.23
2018-05-11T05:49:36.319Z,4.93
2018-05-11T05:51:40.263Z,4.47
2018-05-11T05:53:44.173Z,6.50
2018-05-11T05:55:48.107Z,5.00
2018-05-11T05:57:52.023Z,4.63
2018-05-11T05:59:56.027Z,4.72
2018-05-11T06:01:59.135Z,4.35
2018-05-11T06:04:02.278Z,8.35
2018-05-11T06:06:05.458Z,5.53
2018-05-11T06:08:09.481Z,7.87
2018-05-11T06:10:12.570Z,5.80
2018-05-11T06:12:15.757Z,5.17
2018-05-11T06:14:18.922Z,4.68
2018-05-11T06:16:22.955Z,10.15
2018-05-11T06:18:26.863Z,7.32
2018-05-11T06:20:30.034Z,7.13
2018-05-11T06:22:33.206Z,6.40
2018-05-11T06:24:37.140Z,5.20
2018-05-11T06:26:40.306Z,7.37
2018-05-11T06:28:43.451Z,6.15
2018-05-11T06:30:47.177Z,5.93
2018-05-11T06:32:50.505Z,5.20
2018-05-11T06:34:53.656Z,7.17
2018-05-11T06:36:56.794Z,6.63
2018-05-11T06:38:59.970Z,6.17
2018-05-11T06:41:03.722Z,9.55
2018-05-11T06:43:06.870Z,8.43
2018-05-11T06:45:10.024Z,6.60
2018-05-11T06:47:13.786Z,8.68
2018-05-11T06:49:16.930Z,8.73
2018-05-11T06:51:21.608Z,10.17
2018-05-11T06:53:24.754Z,9.03
2018-05-11T06:55:27.907Z,10.68
2018-05-11T06:57:31.850Z,11.07
2018-05-11T06:59:34.994Z,11.67
2018-05-11T07:01:38.263Z,14.20
2018-05-11T07:03:41.386Z,13.03
2018-05-11T07:05:44.531Z,10.65
2018-05-11T07:07:50.008Z,17.90
2018-05-11T07:09:54.757Z,16.05
2018-05-11T07:11:58.714Z,18.30
2018-05-11T07:14:02.025Z,17.07
2018-05-11T07:16:06.033Z,18.10
2018-05-11T07:18:15.635Z,17.87
2018-05-11T07:20:18.787Z,23.97
2018-05-11T07:22:22.770Z,18.05
2018-05-11T07:24:26.311Z,18.37
2018-05-11T07:26:29.462Z,17.67
2018-05-11T07:28:32.634Z,18.10
2018-05-11T07:30:37.681Z,15.97
2018-05-11T07:32:40.864Z,16.57
2018-05-11T07:34:44.115Z,16.00
2018-05-11T07:36:47.286Z,16.40
2018-05-11T07:38:50.459Z,16.15
2018-05-11T07:40:53.607Z,13.10
2018-05-11T07:42:57.534Z,14.57
2018-05-11T07:45:00.803Z,14.17
2018-05-11T07:47:03.983Z,14.50
2018-05-11T07:49:07.919Z,15.13
2018-05-11T07:51:11.846Z,14.33
2018-05-11T07:53:15.796Z,13.17
2018-05-11T07:55:18.950Z,12.33
2018-05-11T07:57:23.641Z,12.53
2018-05-11T08:01:35.360Z,14.00
2018-05-11T08:03:39.295Z,13.00
2018-05-11T08:05:42.478Z,14.05
2018-05-11T08:07:45.661Z,10.90
2018-05-11T08:09:48.817Z,13.40
2018-05-11T08:11:52.967Z,13.07
2018-05-11T08:13:56.138Z,12.20
2018-05-11T08:15:59.289Z,10.83
2018-05-11T08:18:02.466Z,10.37
2018-05-11T08:20:05.639Z,11.57
2018-05-11T08:22:08.780Z,9.40
2018-05-11T08:24:12.713Z,11.20
2018-05-11T08:26:17.748Z,9.85
2018-05-11T08:28:20.957Z,11.17
2018-05-11T08:30:24.921Z,13.67
2018-05-11T08:32:28.102Z,10.40
2018-05-11T08:34:32.082Z,10.50
2018-05-11T08:36:35.227Z,9.03
2018-05-11T08:38:39.178Z,10.17
2018-05-11T08:40:42.323Z,8.27
2018-05-11T08:42:45.524Z,8.33
2018-05-11T08:44:48.690Z,10.47
2018-05-11T08:46:52.612Z,8.00
2018-05-11T08:48:56.562Z,8.30
2018-05-11T08:50:59.706Z,8.50
2018-05-11T08:53:03.422Z,8.73
2018-05-11T08:55:06.607Z,8.05
2018-05-11T08:57:10.107Z,9.37
2018-05-11T08:59:13.966Z,9.30
2018-05-11T09:01:18.245Z,7.90
2018-05-11T09:03:22.182Z,8.10
2018-05-11T09:05:25.330Z,8.40
2018-05-11T09:07:28.497Z,8.77
2018-05-11T09:09:32.427Z,7.20
2018-05-11T09:11:35.613Z,9.57
2018-05-11T09:13:39.572Z,7.60
2018-05-11T09:15:42.719Z,8.05
2018-05-11T09:17:45.865Z,6.75
2018-05-11T09:19:49.803Z,7.18
2018-05-11T09:21:52.991Z,7.47
2018-05-11T09:23:56.925Z,8.83
2018-05-11T09:26:00.858Z,7.13
2018-05-11T09:28:04.031Z,7.03
2018-05-11T09:30:07.198Z,9.00
2018-05-11T09:32:10.396Z,7.37
2018-05-11T09:34:15.532Z,6.82
2018-05-11T09:36:19.465Z,7.80
2018-05-11T09:38:22.638Z,6.43
2018-05-11T09:40:25.816Z,6.60
2018-05-11T09:42:28.963Z,6.20
2018-05-11T09:44:32.147Z,7.17
2018-05-11T09:46:35.293Z,5.87
2018-05-11T09:48:38.641Z,7.95
2018-05-11T09:50:41.786Z,5.47
2018-05-11T09:52:45.739Z,5.13
2018-05-11T09:54:49.683Z,7.15
2018-05-11T09:56:53.077Z,6.05
2018-05-11T09:58:57.015Z,5.50
2018-05-11T10:01:00.158Z,6.90
2018-05-11T10:03:03.306Z,6.53
2018-05-11T10:05:07.247Z,5.67
2018-05-11T10:07:13.436Z,4.20
2018-05-11T10:09:16.746Z,3.93
2018-05-11T10:11:19.938Z,5.20
2018-05-11T10:13:24.367Z,4.70
2018-05-11T10:15:28.333Z,4.05
2018-05-11T10:17:31.510Z,4.40
2018-05-11T10:19:35.456Z,4.03
2018-05-11T10:21:38.593Z,4.60
2018-05-11T10:23:41.810Z,5.22
2018-05-11T10:25:45.061Z,3.20
2018-05-11T10:27:48.182Z,4.13
2018-05-11T10:29:51.355Z,5.57
2018-05-11T10:31:54.506Z,5.10
2018-05-11T10:33:57.703Z,4.37
2018-05-11T10:36:02.983Z,3.87
2018-05-11T10:38:06.122Z,4.00
2018-05-11T10:40:09.292Z,4.50
2018-05-11T10:42:12.454Z,7.00
2018-05-11T10:44:15.630Z,4.27
2018-05-11T10:46:18.775Z,6.72
2018-05-11T10:48:22.122Z,4.55
2018-05-11T10:50:25.309Z,3.73
2018-05-11T10:52:29.228Z,4.13
2018-05-11T10:54:33.163Z,3.85
2018-05-11T10:56:37.192Z,4.20
2018-05-11T10:58:40.351Z,5.63
2018-05-11T11:00:43.954Z,3.40
2018-05-11T11:02:47.101Z,3.87
2018-05-11T11:04:50.271Z,3.30
2018-05-11T11:06:53.442Z,3.20
2018-05-11T11:08:57.370Z,4.10
2018-05-11T11:11:01.303Z,4.78
2018-05-11T11:13:04.459Z,3.10
2018-05-11T11:15:07.631Z,2.87
2018-05-11T11:17:10.796Z,4.50
2018-05-11T11:19:14.266Z,3.30
2018-05-11T11:21:17.408Z,3.73
2018-05-11T11:23:20.550Z,3.47
2018-05-11T11:25:24.526Z,3.90
2018-05-11T11:27:27.676Z,3.40
2018-05-11T11:29:31.618Z,4.03
2018-05-11T11:31:34.917Z,3.37
2018-05-11T11:33:38.227Z,2.62
2018-05-11T11:35:41.346Z,2.63
2018-05-11T11:37:44.494Z,3.50
2018-05-11T11:39:47.675Z,2.77
2018-05-11T11:41:50.878Z,4.10
2018-05-11T11:43:54.779Z,4.23
2018-05-11T11:45:58.558Z,3.28
2018-05-11T11:48:01.711Z,3.00
2018-05-11T11:50:05.658Z,3.58
2018-05-11T11:52:08.814Z,5.43
2018-05-11T11:54:11.994Z,3.10
2018-05-11T11:56:15.171Z,3.53
2018-05-11T11:58:18.541Z,3.08
2018-05-11T12:00:21.706Z,2.83
2018-05-11T12:02:24.846Z,4.28
2018-05-11T12:04:28.769Z,3.58
2018-05-11T12:06:33.007Z,3.17
2018-05-11T12:08:38.691Z,2.90
2018-05-11T12:10:44.001Z,2.63
2018-05-11T12:12:49.537Z,3.30
2018-05-11T12:14:53.668Z,2.83
2018-05-11T12:16:57.797Z,2.63
2018-05-11T12:19:01.967Z,2.67
2018-05-11T12:21:05.262Z,3.23
2018-05-11T12:23:08.434Z,3.30
2018-05-11T12:25:11.610Z,3.90
2018-05-11T12:27:14.786Z,2.00
2018-05-11T12:29:17.934Z,2.10
2018-05-11T12:31:21.123Z,1.80
2018-05-11T12:33:24.276Z,1.60
2018-05-11T12:35:27.461Z,1.92
2018-05-11T12:37:30.634Z,1.58
2018-05-11T12:39:33.779Z,1.97
2018-05-11T12:41:36.978Z,1.73
2018-05-11T12:43:40.907Z,2.83
2018-05-11T12:45:44.084Z,3.50
2018-05-11T12:47:47.246Z,2.05
2018-05-11T12:49:50.402Z,2.27
2018-05-11T12:51:53.609Z,2.15
2018-05-11T12:56:06.223Z,2.13
2018-05-11T12:58:09.526Z,2.30
2018-05-11T13:00:13.469Z,2.20
2018-05-11T13:02:17.428Z,3.67
2018-05-11T13:04:20.625Z,2.00
2018-05-11T13:06:23.796Z,1.50
2018-05-11T13:08:26.950Z,2.80
2018-05-11T13:10:30.091Z,1.45
2018-05-11T13:12:33.267Z,1.50
2018-05-11T13:14:36.412Z,1.30
2018-05-11T13:16:40.349Z,2.73
2018-05-11T13:18:43.492Z,1.87
2018-05-11T13:20:46.699Z,2.65
2018-05-11T13:22:50.605Z,3.47
2018-05-11T13:24:53.754Z,1.83
2018-05-11T13:26:57.188Z,2.42
2018-05-11T13:29:00.353Z,1.67
2018-05-11T13:31:05.567Z,2.67
2018-05-11T13:33:08.750Z,2.17
2018-05-11T13:35:11.903Z,1.40
2018-05-11T13:37:15.078Z,1.87
2018-05-11T13:39:18.361Z,1.27
2018-05-11T13:41:21.531Z,2.25
2018-05-11T13:43:25.474Z,2.10
2018-05-11T13:45:31.522Z,0.88
2018-05-11T13:47:35.494Z,1.70
2018-05-11T13:49:38.671Z,1.20
2018-05-11T13:51:42.674Z,1.00
2018-05-11T13:53:45.823Z,1.40
2018-05-11T13:55:49.887Z,1.43
2018-05-11T13:57:54.201Z,1.50
2018-05-11T13:59:57.449Z,1.83
2018-05-11T14:02:00.711Z,1.15
2018-05-11T14:04:03.861Z,1.03
2018-05-11T14:06:07.020Z,4.22
2018-05-11T14:08:10.961Z,2.33
2018-05-11T14:10:14.140Z,0.70
2018-05-11T14:12:17.301Z,0.80
2018-05-11T14:14:20.451Z,1.98
2018-05-11T14:16:23.595Z,1.53
2018-05-11T14:18:26.855Z,1.70
2018-05-11T14:20:30.019Z,1.30
2018-05-11T14:22:33.269Z,1.03
2018-05-11T14:24:36.423Z,2.30
2018-05-11T14:26:39.594Z,1.10
2018-05-11T14:28:42.756Z,1.03
2018-05-11T14:30:45.906Z,1.48
2018-05-11T14:32:49.855Z,0.90
2018-05-11T14:34:53.771Z,0.73
2018-05-11T14:36:58.839Z,1.00
2018-05-11T14:39:02.981Z,0.50
2018-05-11T14:41:06.126Z,0.70
2018-05-11T14:43:09.312Z,0.87
2018-05-11T14:45:12.457Z,1.40
2018-05-11T14:47:16.122Z,0.88
2018-05-11T14:49:19.295Z,2.17
2018-05-11T14:51:22.439Z,1.93
2018-05-11T14:53:25.610Z,2.03
2018-05-11T14:55:28.761Z,1.45
2018-05-11T14:57:31.934Z,2.90
2018-05-11T14:59:35.087Z,1.02
2018-05-11T15:01:38.898Z,2.60
2018-05-11T15:03:42.096Z,0.63
2018-05-11T15:05:45.273Z,1.60
2018-05-11T15:07:48.516Z,1.00
2018-05-11T15:09:51.669Z,0.90
2018-05-11T15:11:54.854Z,0.97
2018-05-11T15:13:59.008Z,1.60
2018-05-11T15:16:02.170Z,1.33
2018-05-11T15:18:05.359Z,0.95
2018-05-11T15:20:09.275Z,0.80
2018-05-11T15:22:12.602Z,0.62
2018-05-11T15:24:16.515Z,1.85
2018-05-11T15:26:19.688Z,2.17
2018-05-11T15:28:22.879Z,1.73
2018-05-11T15:30:26.353Z,1.55
2018-05-11T15:32:29.596Z,2.57
2018-05-11T15:34:32.856Z,3.33
2018-05-11T15:36:36.001Z,4.75
2018-05-11T15:38:39.251Z,3.10
2018-05-11T15:40:42.427Z,3.83
2018-05-11T15:42:45.606Z,2.50
2018-05-11T15:44:48.779Z,3.37
2018-05-11T15:46:51.920Z,3.57
2018-05-11T15:48:55.086Z,3.53
2018-05-11T15:50:59.348Z,3.17
2018-05-11T15:53:02.518Z,2.37
2018-05-11T15:55:05.667Z,3.60
2018-05-11T15:57:08.811Z,2.83
2018-05-11T15:59:12.007Z,4.20
2018-05-11T16:01:15.174Z,3.55
2018-05-11T16:03:19.471Z,4.87
2018-05-11T16:05:22.619Z,3.10
2018-05-11T16:07:25.867Z,2.50
2018-05-11T16:09:29.822Z,4.80
2018-05-11T16:11:33.001Z,4.50
2018-05-11T16:13:37.014Z,4.37
2018-05-11T16:15:41.101Z,4.90
2018-05-11T16:17:44.277Z,4.30
2018-05-11T16:19:47.450Z,2.30
2018-05-11T16:21:50.762Z,2.87
2018-05-11T16:23:54.879Z,4.53
2018-05-11T16:25:58.025Z,5.72
2018-05-11T16:28:01.938Z,3.58
2018-05-11T16:30:05.910Z,3.87
2018-05-11T16:32:09.042Z,3.97
2018-05-11T16:34:12.215Z,2.73
2018-05-11T16:36:15.387Z,3.37
2018-05-11T16:38:19.471Z,3.45
2018-05-11T16:40:23.802Z,4.67
2018-05-11T16:42:27.675Z,5.00
2018-05-11T16:44:31.837Z,2.72
2018-05-11T16:46:35.030Z,2.75
2018-05-11T16:48:38.974Z,2.20
2018-05-11T16:50:42.123Z,4.23
2018-05-11T16:52:45.265Z,5.47
2018-05-11T16:54:49.210Z,2.10
2018-05-11T16:56:52.368Z,5.20
2018-05-11T16:58:55.538Z,3.00
2018-05-11T17:00:58.689Z,5.87
2018-05-11T17:03:01.837Z,5.70
2018-05-11T17:05:05.771Z,4.40
2018-05-11T17:07:08.963Z,3.37
2018-05-11T17:09:12.910Z,4.23
2018-05-11T17:11:16.049Z,4.53
2018-05-11T17:13:19.223Z,4.90
2018-05-11T17:15:22.376Z,4.50
2018-05-11T17:17:25.542Z,5.47
2018-05-11T17:19:29.687Z,5.80
2018-05-11T17:21:33.719Z,4.37
2018-05-11T17:23:36.922Z,4.67
2018-05-11T17:25:40.181Z,3.40
2018-05-11T17:27:46.217Z,4.55
2018-05-11T17:29:49.415Z,3.70
2018-05-11T17:32:02.988Z,3.87
2018-05-11T17:34:27.523Z,4.13
2018-05-11T17:36:30.720Z,2.37
2018-05-11T17:38:33.957Z,4.63
2018-05-11T17:40:37.960Z,2.73
2018-05-11T17:42:41.245Z,3.33
2018-05-11T17:45:07.799Z,5.45
2018-05-11T17:47:11.905Z,5.10
2018-05-11T17:49:15.091Z,2.72
2018-05-11T17:51:18.352Z,2.62
2018-05-11T17:53:22.365Z,3.03
2018-05-11T17:55:26.434Z,3.97
2018-05-11T17:57:30.533Z,4.33
2018-05-11T17:59:33.930Z,3.07
2018-05-11T18:01:38.484Z,2.47
2018-05-11T18:03:41.778Z,2.80
2018-05-11T18:05:45.526Z,3.30
2018-05-11T18:07:48.816Z,3.17
2018-05-11T18:10:07.239Z,2.83
2018-05-11T18:12:10.411Z,2.70
2018-05-11T18:14:13.635Z,1.55
2018-05-11T18:16:16.819Z,1.60
2018-05-11T18:18:20.035Z,2.90
2018-05-11T18:20:23.259Z,2.23
2018-05-11T18:22:26.437Z,2.03
2018-05-11T18:24:29.631Z,9.77
2018-05-11T18:26:32.841Z,2.37
2018-05-11T18:28:36.047Z,3.07
2018-05-11T18:30:39.344Z,4.32
2018-05-11T18:32:42.665Z,7.40
2018-05-11T18:34:45.910Z,11.40
2018-05-11T18:36:49.215Z,12.33
2018-05-11T18:38:52.410Z,8.33
2018-05-11T18:40:55.618Z,4.87
2018-05-11T18:42:58.769Z,3.83
2018-05-11T18:45:02.118Z,3.83
2018-05-11T18:47:05.409Z,3.43
2018-05-11T18:49:08.558Z,5.47
2018-05-11T18:51:11.950Z,4.13
2018-05-11T18:53:15.330Z,6.95
2018-05-11T18:55:18.364Z,6.93
2018-05-11T18:57:21.524Z,7.60
2018-05-11T18:59:26.837Z,7.05
2018-05-11T19:01:30.048Z,6.12
2018-05-11T19:03:33.235Z,8.88
2018-05-11T19:05:37.209Z,9.07
2018-05-11T19:07:40.420Z,16.67
2018-05-11T19:09:43.611Z,8.13
2018-05-11T19:11:46.819Z,9.37
2018-05-11T19:13:49.994Z,7.90
2018-05-11T19:15:54.384Z,5.10
2018-05-11T19:17:59.752Z,3.30
2018-05-11T19:20:03.241Z,5.40
2018-05-11T19:22:06.619Z,4.80
2018-05-11T19:24:09.853Z,3.33
2018-05-11T19:26:13.128Z,4.72
2018-05-11T19:28:17.196Z,3.43
2018-05-11T19:30:20.669Z,7.62
2018-05-11T19:32:23.949Z,5.87
2018-05-11T19:34:27.422Z,4.27
2018-05-11T19:36:30.713Z,3.87
2018-05-11T19:38:34.877Z,2.87
2018-05-11T19:40:38.233Z,2.78
2018-05-11T19:42:41.573Z,3.58
2018-05-11T19:44:45.697Z,2.55
2018-05-11T19:46:48.922Z,3.00
2018-05-11T19:48:52.882Z,4.20
2018-05-11T19:50:56.116Z,5.07
2018-05-11T19:52:59.304Z,5.43
2018-05-11T19:55:02.499Z,4.97
2018-05-11T19:57:05.731Z,5.93
2018-05-11T19:59:08.927Z,2.80
2018-05-11T20:01:12.119Z,3.03
2018-05-11T20:03:15.328Z,4.53
2018-05-11T20:05:18.506Z,3.05
2018-05-11T20:07:22.492Z,3.85
2018-05-11T20:09:25.717Z,5.33
2018-05-11T20:11:29.019Z,6.07
2018-05-11T20:13:32.258Z,5.43
2018-05-11T20:15:36.290Z,2.83
2018-05-11T20:17:40.287Z,3.97
2018-05-11T20:19:43.469Z,2.13
2018-05-11T20:21:47.295Z,5.07
2018-05-11T20:23:50.472Z,4.18
2018-05-11T20:25:54.493Z,2.95
2018-05-11T20:27:58.480Z,4.43
2018-05-11T20:30:01.744Z,4.00
2018-05-11T20:32:05.960Z,3.47
2018-05-11T20:34:09.133Z,4.63
2018-05-11T20:36:12.316Z,4.23
2018-05-11T20:38:15.520Z,4.33
2018-05-11T20:40:18.769Z,3.10
2018-05-11T20:42:21.981Z,2.90
2018-05-11T20:44:26.892Z,2.33
2018-05-11T20:46:30.141Z,2.72
2018-05-11T20:48:33.544Z,2.23
2018-05-11T20:50:36.762Z,3.22
2018-05-11T20:52:39.966Z,5.03
2018-05-11T20:54:43.188Z,2.33
2018-05-11T20:56:46.429Z,3.10
2018-05-11T20:58:50.465Z,2.50
2018-05-11T21:00:54.812Z,3.43
2018-05-11T21:02:58.165Z,3.33
2018-05-11T21:05:01.381Z,3.87
2018-05-11T21:07:04.769Z,1.87
2018-05-11T21:09:08.038Z,2.03
2018-05-11T21:11:11.328Z,4.43
2018-05-11T21:13:14.567Z,2.97
2018-05-11T21:15:18.629Z,3.55
2018-05-11T21:17:22.279Z,2.35
2018-05-11T21:19:26.451Z,2.22
2018-05-11T21:21:29.638Z,4.80
2018-05-11T21:23:33.623Z,2.30
2018-05-11T21:25:36.833Z,1.90
2018-05-11T21:27:40.268Z,2.08
2018-05-11T21:29:43.471Z,2.22
2018-05-11T21:31:46.666Z,2.80
2018-05-11T21:33:50.617Z,2.07
2018-05-11T21:35:53.811Z,3.73
2018-05-11T21:37:57.017Z,2.53
2018-05-11T21:40:00.246Z,3.03
2018-05-11T21:42:04.594Z,5.47
2018-05-11T21:44:08.669Z,2.53
2018-05-11T21:46:11.835Z,4.18
2018-05-11T21:48:15.014Z,2.40
2018-05-11T21:50:18.176Z,3.35
2018-05-11T21:52:21.687Z,3.03
2018-05-11T21:54:26.802Z,2.07
2018-05-11T21:56:29.967Z,2.20
2018-05-11T21:58:33.152Z,2.10
2018-05-11T22:00:37.148Z,2.60
2018-05-11T22:02:40.343Z,2.73
2018-05-11T22:04:43.536Z,2.80
2018-05-11T22:06:46.885Z,2.33
2018-05-11T22:08:50.122Z,4.47
2018-05-11T22:10:54.055Z,2.05
2018-05-11T22:12:58.022Z,2.33
2018-05-11T22:15:01.197Z,2.63
2018-05-11T22:17:04.354Z,4.07
2018-05-11T22:19:07.565Z,4.40
2018-05-11T22:21:10.728Z,2.17
2018-05-11T22:23:13.931Z,2.70
2018-05-11T22:25:17.088Z,2.85
2018-05-11T22:27:20.254Z,2.78
2018-05-11T22:29:23.449Z,3.05
2018-05-11T22:31:26.980Z,2.53
2018-05-11T22:33:31.024Z,3.20
2018-05-11T22:35:34.180Z,3.67
2018-05-11T22:37:37.339Z,2.63
2018-05-11T22:39:40.542Z,3.07
2018-05-11T22:41:43.712Z,2.35
2018-05-11T22:43:47.203Z,2.22
2018-05-11T22:45:50.430Z,1.90
2018-05-11T22:47:53.592Z,2.17
2018-05-11T22:49:59.067Z,3.15
2018-05-11T22:52:04.882Z,2.25
2018-05-11T22:54:08.833Z,2.67
2018-05-11T22:56:12.006Z,2.83
2018-05-11T22:58:15.208Z,2.03
2018-05-11T23:00:27.759Z,2.60
2018-05-11T23:02:31.670Z,2.40
2018-05-11T23:04:35.625Z,3.13
2018-05-11T23:06:38.789Z,2.97
2018-05-11T23:08:41.975Z,2.30
2018-05-11T23:10:45.149Z,2.13
2018-05-11T23:12:48.336Z,3.13
2018-05-11T23:14:52.288Z,2.28
2018-05-11T23:16:55.470Z,2.50
2018-05-11T23:18:59.431Z,2.20
2018-05-11T23:21:02.594Z,2.47
2018-05-11T23:23:05.758Z,2.40
2018-05-11T23:25:08.952Z,2.70
2018-05-11T23:27:12.146Z,2.72
2018-05-11T23:29:16.108Z,2.03
2018-05-11T23:31:19.264Z,2.23
2018-05-11T23:33:23.181Z,3.37
2018-05-11T23:35:26.370Z,3.13
2018-05-11T23:37:29.597Z,2.43
2018-05-11T23:39:32.799Z,3.23
2018-05-11T23:41:35.959Z,2.30
2018-05-11T23:43:39.174Z,2.90
2018-05-11T23:45:42.357Z,5.20
2018-05-11T23:47:46.280Z,2.70
2018-05-11T23:49:50.374Z,3.53
2018-05-11T23:51:53.519Z,2.53
2018-05-11T23:53:57.473Z,4.17
2018-05-11T23:56:00.631Z,2.50
2018-05-11T23:58:03.799Z,2.77
